sim
Sign-in with your pilot id or email,
or register
Callsign
Passwort

Schedule Details

Flight Number: DLH2517
Departure: Dublin Airport (EIDW) at 10:40
Arrival: Munich Airport (EDDM) at 12:55
Route: Lufthansa Passenger Schedule. Enter filed route here before submitting Pirep.

Weather Information
Getting current METAR information for EIDW 190900Z 07015KT 9999 SCT016 BKN020 13/09 Q1022 NOSIG
Getting current METAR information for EDDM 190920Z 08007KT 040V110 CAVOK 16/09 Q1020 NOSIG

Schedule Frequency

Route Map